createdAt,value
2023-03-26T00:01:23.684Z,32.70
2023-03-26T00:04:01.285Z,31.58
2023-03-26T00:06:36.681Z,25.15
2023-03-26T00:09:05.634Z,22.02
2023-03-26T00:11:32.501Z,28.83
2023-03-26T00:13:59.412Z,26.92
2023-03-26T00:16:31.467Z,22.85
2023-03-26T00:18:59.996Z,25.75
2023-03-26T00:21:29.301Z,21.20
2023-03-26T00:23:59.980Z,22.35
2023-03-26T00:26:29.623Z,21.55
2023-03-26T00:28:57.940Z,40.42
2023-03-26T00:31:24.942Z,25.90
2023-03-26T00:33:55.797Z,24.23
2023-03-26T00:36:25.565Z,20.02
2023-03-26T00:38:53.747Z,27.65
2023-03-26T00:41:25.538Z,22.23
2023-03-26T00:43:58.805Z,31.50
2023-03-26T00:46:30.595Z,30.50
2023-03-26T00:48:58.995Z,33.85
2023-03-26T00:51:27.228Z,20.08
2023-03-26T00:53:54.298Z,31.92
2023-03-26T00:56:21.254Z,25.15
2023-03-26T00:58:50.105Z,26.75
2023-03-26T01:01:33.141Z,28.77
2023-03-26T01:04:38.098Z,36.22
2023-03-26T01:07:11.327Z,30.15
2023-03-26T01:09:45.193Z,23.95
2023-03-26T01:12:18.180Z,26.52
2023-03-26T01:14:47.215Z,17.77
2023-03-26T01:17:14.819Z,28.10
2023-03-26T01:19:44.917Z,29.40
2023-03-26T01:22:16.448Z,30.52
2023-03-26T01:24:46.093Z,27.60
2023-03-26T01:27:28.349Z,22.45
2023-03-26T01:30:17.489Z,31.00
2023-03-26T01:33:23.271Z,19.15
2023-03-26T01:36:02.715Z,26.60
2023-03-26T01:38:38.512Z,23.00
2023-03-26T01:41:14.102Z,32.72
2023-03-26T01:43:53.166Z,26.30
2023-03-26T01:46:22.247Z,31.30
2023-03-26T01:48:49.532Z,29.50
2023-03-26T01:51:28.048Z,26.45
2023-03-26T01:53:56.511Z,32.40
2023-03-26T01:57:01.882Z,20.02
2023-03-26T01:59:48.829Z,30.17
2023-03-26T02:02:24.684Z,33.10
2023-03-26T02:05:13.991Z,38.78
2023-03-26T02:07:52.227Z,38.47
2023-03-26T02:10:33.786Z,51.88
2023-03-26T02:13:01.304Z,28.40
2023-03-26T02:15:28.189Z,38.60
2023-03-26T02:17:55.240Z,28.13
2023-03-26T02:20:22.470Z,34.90
2023-03-26T02:22:49.369Z,30.65
2023-03-26T02:25:20.620Z,37.83
2023-03-26T02:27:50.339Z,27.38
2023-03-26T02:30:25.598Z,44.40
2023-03-26T02:32:57.881Z,37.97
2023-03-26T02:35:25.741Z,34.95
2023-03-26T02:37:58.211Z,22.08
2023-03-26T02:40:25.198Z,33.92
2023-03-26T02:42:52.505Z,47.30
2023-03-26T02:45:19.550Z,19.48
2023-03-26T02:48:05.256Z,27.10
2023-03-26T02:50:50.280Z,32.17
2023-03-26T02:53:39.410Z,39.85
2023-03-26T02:56:35.927Z,33.25
2023-03-26T02:59:23.365Z,34.67
2023-03-26T03:02:06.572Z,79.60
2023-03-26T03:04:34.755Z,61.08
2023-03-26T03:07:01.671Z,60.28
2023-03-26T03:09:28.624Z,71.25
2023-03-26T03:12:14.257Z,45.25
2023-03-26T03:14:41.186Z,69.85
2023-03-26T03:17:08.078Z,61.92
2023-03-26T03:19:35.010Z,60.90
2023-03-26T03:22:02.232Z,69.70
2023-03-26T03:24:33.738Z,67.38
2023-03-26T03:27:00.652Z,66.45
2023-03-26T03:29:33.409Z,65.65
2023-03-26T03:32:22.514Z,66.22
2023-03-26T03:34:51.842Z,64.75
2023-03-26T03:37:19.614Z,63.30
2023-03-26T03:39:52.961Z,69.47
2023-03-26T03:42:22.278Z,62.05
2023-03-26T03:44:51.868Z,80.05
2023-03-26T03:47:38.838Z,67.97
2023-03-26T03:50:06.966Z,63.65
2023-03-26T03:52:34.384Z,78.55
2023-03-26T03:55:01.219Z,79.50
2023-03-26T03:57:41.767Z,87.80
2023-03-26T04:00:14.789Z,80.90
2023-03-26T04:02:48.906Z,72.88
2023-03-26T04:05:16.324Z,74.57
2023-03-26T04:07:47.424Z,91.28
2023-03-26T04:10:26.034Z,77.60
2023-03-26T04:13:25.285Z,53.85
2023-03-26T04:15:55.059Z,80.25
2023-03-26T04:18:23.349Z,59.95
2023-03-26T04:20:50.793Z,63.28
2023-03-26T04:23:26.662Z,78.93
2023-03-26T04:26:04.264Z,61.65
2023-03-26T04:28:57.741Z,59.50
2023-03-26T04:31:31.306Z,63.25
2023-03-26T04:34:07.679Z,67.35
2023-03-26T04:36:42.462Z,65.50
2023-03-26T04:39:11.717Z,67.57
2023-03-26T04:41:57.885Z,51.28
2023-03-26T04:44:30.314Z,54.25
2023-03-26T04:47:05.035Z,54.45
2023-03-26T04:49:38.392Z,57.75
2023-03-26T04:52:05.582Z,57.70
2023-03-26T04:54:58.379Z,62.88
2023-03-26T04:57:39.336Z,60.10
2023-03-26T05:00:15.926Z,68.45
2023-03-26T05:02:54.172Z,61.90
2023-03-26T05:05:22.541Z,52.22
2023-03-26T05:07:50.597Z,64.55
2023-03-26T05:10:22.723Z,55.42
2023-03-26T05:12:57.450Z,59.38
2023-03-26T05:15:30.987Z,71.00
2023-03-26T05:17:58.271Z,78.38
2023-03-26T05:20:58.019Z,61.85
2023-03-26T05:23:26.936Z,54.28
2023-03-26T05:26:07.620Z,74.22
2023-03-26T05:28:34.847Z,55.60
2023-03-26T05:31:31.024Z,54.75
2023-03-26T05:34:03.227Z,78.95
2023-03-26T05:36:30.215Z,71.05
2023-03-26T05:39:15.867Z,55.72
2023-03-26T05:42:21.227Z,73.20
2023-03-26T05:45:10.846Z,68.53
2023-03-26T05:47:38.188Z,72.45
2023-03-26T05:50:06.214Z,61.75
2023-03-26T05:52:34.713Z,78.85
2023-03-26T05:55:27.755Z,66.93
2023-03-26T05:58:13.893Z,66.18
2023-03-26T06:01:08.459Z,71.60
2023-03-26T06:04:01.327Z,55.28
2023-03-26T06:06:33.195Z,58.70
2023-03-26T06:09:02.247Z,59.45
2023-03-26T06:11:31.814Z,62.03
2023-03-26T06:14:00.395Z,50.63
2023-03-26T06:16:28.210Z,51.92
2023-03-26T06:19:20.441Z,46.53
2023-03-26T06:21:55.359Z,66.00
2023-03-26T06:24:26.315Z,55.05
2023-03-26T06:27:06.903Z,40.53
2023-03-26T06:29:33.788Z,65.30
2023-03-26T06:32:19.649Z,54.35
2023-03-26T06:35:07.763Z,52.05
2023-03-26T06:37:34.645Z,49.72
2023-03-26T06:40:03.162Z,49.42
2023-03-26T06:43:07.633Z,50.25
2023-03-26T06:46:09.638Z,62.20
2023-03-26T06:48:36.967Z,48.72
2023-03-26T06:51:12.969Z,49.47
2023-03-26T06:53:58.411Z,53.08
2023-03-26T06:56:48.971Z,54.03
2023-03-26T06:59:24.704Z,57.30
2023-03-26T07:02:11.629Z,63.45
2023-03-26T07:05:14.672Z,65.80
2023-03-26T07:07:59.929Z,58.58
2023-03-26T07:10:46.363Z,47.10
2023-03-26T07:13:18.935Z,65.85
2023-03-26T07:16:04.805Z,61.60
2023-03-26T07:19:04.240Z,51.63
2023-03-26T07:21:48.622Z,54.63
2023-03-26T07:24:42.062Z,51.45
2023-03-26T07:27:47.322Z,61.67
2023-03-26T07:30:26.687Z,53.92
2023-03-26T07:33:29.521Z,53.33
2023-03-26T07:36:46.722Z,59.47
2023-03-26T07:42:27.725Z,42.78
2023-03-26T07:45:40.854Z,52.03
2023-03-26T07:48:29.528Z,60.17
2023-03-26T07:51:07.033Z,52.83
2023-03-26T07:54:04.323Z,52.20
2023-03-26T07:57:10.172Z,53.95
2023-03-26T07:59:58.434Z,48.50
2023-03-26T08:03:12.630Z,50.92
2023-03-26T08:06:23.883Z,50.03
2023-03-26T08:09:25.373Z,53.70
2023-03-26T08:12:37.894Z,47.33
2023-03-26T08:16:02.644Z,54.75
2023-03-26T08:19:16.651Z,41.55
2023-03-26T08:21:51.661Z,51.78
2023-03-26T08:24:34.376Z,50.78
2023-03-26T08:27:38.584Z,50.92
2023-03-26T08:30:14.599Z,61.20
2023-03-26T08:32:42.025Z,46.53
2023-03-26T08:35:13.456Z,48.25
2023-03-26T08:37:40.508Z,53.75
2023-03-26T08:40:09.791Z,51.70
2023-03-26T08:43:09.246Z,52.28
2023-03-26T08:45:47.320Z,44.45
2023-03-26T08:48:25.487Z,37.13
2023-03-26T08:51:01.604Z,45.58
2023-03-26T08:53:54.684Z,42.95
2023-03-26T08:56:53.269Z,42.38
2023-03-26T08:59:55.807Z,51.22
2023-03-26T09:03:00.549Z,45.72
2023-03-26T09:05:28.904Z,54.67
2023-03-26T09:08:14.286Z,58.17
2023-03-26T09:10:52.116Z,63.72
2023-03-26T09:13:22.624Z,58.03
2023-03-26T09:16:21.940Z,48.92
2023-03-26T09:19:07.112Z,58.65
2023-03-26T09:22:12.196Z,55.50
2023-03-26T09:25:13.480Z,60.00
2023-03-26T09:27:58.851Z,57.15
2023-03-26T09:30:59.683Z,50.97
2023-03-26T09:33:45.117Z,49.08
2023-03-26T09:36:41.098Z,59.92
2023-03-26T09:39:30.223Z,44.80
2023-03-26T09:42:29.342Z,44.90
2023-03-26T09:45:01.800Z,51.08
2023-03-26T09:47:49.879Z,35.95
2023-03-26T09:50:20.541Z,43.28
2023-03-26T09:53:08.573Z,38.05
2023-03-26T09:55:42.466Z,38.40
2023-03-26T09:58:46.662Z,44.38
2023-03-26T10:01:40.987Z,39.40
2023-03-26T10:04:38.020Z,33.83
2023-03-26T10:07:23.311Z,34.22
2023-03-26T10:09:56.021Z,40.40
2023-03-26T10:12:32.799Z,44.55
2023-03-26T10:15:14.958Z,35.13
2023-03-26T10:20:18.385Z,32.30
2023-03-26T10:23:00.516Z,29.17
2023-03-26T10:28:22.040Z,17.38
2023-03-26T10:31:07.285Z,27.67
2023-03-26T10:34:09.164Z,21.63
2023-03-26T10:37:08.590Z,24.75
2023-03-26T10:39:50.563Z,24.65
2023-03-26T10:42:20.675Z,26.38
2023-03-26T10:45:14.202Z,14.48
2023-03-26T10:48:19.434Z,18.35
2023-03-26T10:51:13.028Z,12.85
2023-03-26T10:53:49.203Z,14.88
2023-03-26T10:56:32.416Z,28.73
2023-03-26T10:59:12.600Z,21.35
2023-03-26T11:01:46.747Z,15.35
2023-03-26T11:04:25.716Z,23.10
2023-03-26T11:07:04.868Z,20.10
2023-03-26T11:09:53.953Z,26.02
2023-03-26T11:12:33.803Z,14.77
2023-03-26T11:15:29.559Z,23.20
2023-03-26T11:18:24.251Z,18.05
2023-03-26T11:21:20.856Z,19.35
2023-03-26T11:27:14.882Z,22.38
2023-03-26T11:30:13.277Z,22.80
2023-03-26T11:32:45.262Z,23.45
2023-03-26T11:35:40.434Z,18.67
2023-03-26T11:38:39.330Z,19.15
2023-03-26T11:41:27.153Z,29.75
2023-03-26T11:46:33.898Z,17.98
2023-03-26T11:49:06.764Z,19.50
2023-03-26T11:51:38.827Z,16.20
2023-03-26T11:54:10.802Z,20.90
2023-03-26T11:57:05.688Z,29.70
2023-03-26T11:59:56.694Z,23.25
2023-03-26T12:02:34.173Z,17.70
2023-03-26T12:05:26.336Z,25.42
2023-03-26T12:07:57.173Z,21.67
2023-03-26T12:10:42.969Z,23.02
2023-03-26T12:13:21.220Z,15.73
2023-03-26T12:15:48.408Z,19.88
2023-03-26T12:18:25.217Z,23.92
2023-03-26T12:21:09.314Z,21.67
2023-03-26T12:23:57.892Z,20.80
2023-03-26T12:26:48.977Z,22.63
2023-03-26T12:29:17.794Z,23.25
2023-03-26T12:32:04.956Z,18.95
2023-03-26T12:34:35.387Z,18.20
2023-03-26T12:37:04.163Z,18.00
2023-03-26T12:40:08.826Z,11.45
2023-03-26T12:44:49.407Z,15.98
2023-03-26T12:45:15.668Z,21.55
2023-03-26T12:47:58.751Z,17.20
2023-03-26T12:50:55.175Z,15.82
2023-03-26T12:53:44.624Z,16.02
2023-03-26T12:56:27.285Z,19.48
2023-03-26T12:59:14.500Z,18.83
2023-03-26T13:02:08.910Z,17.15
2023-03-26T13:05:07.137Z,10.50
2023-03-26T13:07:40.301Z,12.20
2023-03-26T13:10:16.904Z,14.15
2023-03-26T13:13:09.985Z,12.40
2023-03-26T13:15:50.740Z,16.73
2023-03-26T13:18:46.162Z,33.25
2023-03-26T13:21:19.816Z,17.65
2023-03-26T13:23:55.558Z,10.75
2023-03-26T13:26:44.210Z,7.82
2023-03-26T13:29:34.012Z,13.10
2023-03-26T13:32:05.153Z,19.35
2023-03-26T13:35:20.941Z,15.00
2023-03-26T13:38:10.960Z,10.82
2023-03-26T13:40:43.707Z,19.05
2023-03-26T13:43:34.917Z,15.25
2023-03-26T13:46:09.361Z,16.88
2023-03-26T13:49:01.798Z,13.18
2023-03-26T13:51:53.685Z,17.27
2023-03-26T13:54:28.284Z,14.43
2023-03-26T13:57:14.929Z,17.98
2023-03-26T14:00:16.355Z,15.23
2023-03-26T14:02:47.759Z,14.43
2023-03-26T14:05:21.284Z,16.27
2023-03-26T14:07:59.121Z,12.43
2023-03-26T14:10:35.356Z,14.98
2023-03-26T14:13:22.569Z,14.77
2023-03-26T14:15:57.432Z,15.80
2023-03-26T14:18:39.454Z,17.05
2023-03-26T14:21:34.143Z,8.68
2023-03-26T14:24:18.074Z,13.52
2023-03-26T14:27:02.531Z,22.67
2023-03-26T14:29:32.368Z,12.30
2023-03-26T14:32:24.087Z,11.20
2023-03-26T14:35:20.077Z,22.35
2023-03-26T14:37:58.642Z,18.70
2023-03-26T14:41:02.371Z,11.85
2023-03-26T14:44:04.165Z,15.85
2023-03-26T14:46:51.187Z,12.47
2023-03-26T14:49:28.341Z,11.65
2023-03-26T14:51:55.211Z,9.38
2023-03-26T14:54:31.430Z,12.00
2023-03-26T14:57:23.882Z,11.73
2023-03-26T15:00:23.574Z,16.67
2023-03-26T15:03:09.622Z,15.50
2023-03-26T15:06:15.365Z,14.43
2023-03-26T15:09:20.349Z,12.70
2023-03-26T15:12:21.409Z,8.40
2023-03-26T15:14:51.318Z,13.82
2023-03-26T15:17:49.075Z,17.10
2023-03-26T15:20:37.153Z,17.75
2023-03-26T15:23:41.166Z,11.82
2023-03-26T15:26:27.513Z,9.55
2023-03-26T15:29:36.883Z,17.85
2023-03-26T15:32:18.893Z,12.32
2023-03-26T15:35:02.431Z,14.35
2023-03-26T15:37:29.540Z,11.57
2023-03-26T15:40:28.154Z,17.05
2023-03-26T15:43:15.587Z,11.07
2023-03-26T15:45:47.484Z,10.05
2023-03-26T15:48:18.313Z,6.45
2023-03-26T15:51:28.583Z,10.10
2023-03-26T15:53:55.587Z,11.30
2023-03-26T15:56:41.072Z,18.15
2023-03-26T15:59:12.091Z,18.95
2023-03-26T16:01:41.936Z,9.90
2023-03-26T16:04:09.164Z,11.40
2023-03-26T16:06:48.216Z,16.10
2023-03-26T16:09:27.140Z,11.90
2023-03-26T16:11:54.770Z,14.70
2023-03-26T16:14:44.712Z,15.90
2023-03-26T16:17:23.372Z,14.82
2023-03-26T16:20:19.261Z,15.93
2023-03-26T16:23:24.246Z,12.63
2023-03-26T16:25:59.333Z,9.73
2023-03-26T16:28:27.943Z,12.20
2023-03-26T16:31:38.138Z,8.95
2023-03-26T16:34:08.312Z,10.10
2023-03-26T16:36:37.767Z,17.83
2023-03-26T16:39:10.358Z,17.10
2023-03-26T16:41:45.203Z,13.95
2023-03-26T16:44:24.489Z,11.07
2023-03-26T16:47:02.947Z,9.05
2023-03-26T16:50:09.558Z,12.00
2023-03-26T16:53:17.902Z,25.23
2023-03-26T16:55:56.698Z,14.13
2023-03-26T16:58:48.544Z,13.93
2023-03-26T17:01:19.244Z,18.77
2023-03-26T17:03:58.435Z,16.13
2023-03-26T17:06:31.471Z,10.20
2023-03-26T17:09:34.321Z,5.57
2023-03-26T17:12:27.283Z,10.55
2023-03-26T17:15:00.270Z,8.32
2023-03-26T17:17:39.204Z,9.68
2023-03-26T17:20:33.151Z,9.75
2023-03-26T17:23:08.052Z,11.63
2023-03-26T17:25:54.076Z,7.10
2023-03-26T17:28:44.484Z,8.15
2023-03-26T17:31:23.841Z,7.82
2023-03-26T17:33:51.530Z,6.32
2023-03-26T17:36:41.783Z,9.25
2023-03-26T17:39:21.134Z,10.23
2023-03-26T17:42:12.962Z,9.13
2023-03-26T17:47:22.437Z,11.93
2023-03-26T17:49:54.843Z,8.32
2023-03-26T17:52:41.694Z,7.43
2023-03-26T17:55:14.530Z,11.85
2023-03-26T17:57:44.600Z,9.23
2023-03-26T18:00:22.735Z,11.05
2023-03-26T18:03:04.694Z,10.43
2023-03-26T18:05:34.353Z,15.00
2023-03-26T18:08:03.926Z,9.45
2023-03-26T18:11:01.429Z,12.52
2023-03-26T18:13:57.657Z,12.55
2023-03-26T18:16:47.461Z,8.60
2023-03-26T18:19:19.806Z,8.57
2023-03-26T18:24:28.316Z,9.57
2023-03-26T18:27:02.797Z,13.10
2023-03-26T18:29:36.894Z,8.55
2023-03-26T18:32:22.680Z,7.60
2023-03-26T18:34:59.285Z,14.70
2023-03-26T18:37:34.860Z,6.88
2023-03-26T18:40:16.739Z,8.10
2023-03-26T18:42:49.800Z,9.85
2023-03-26T18:45:26.278Z,10.02
2023-03-26T18:47:56.343Z,9.13
2023-03-26T18:50:29.988Z,9.68
2023-03-26T18:52:59.512Z,10.70
2023-03-26T18:55:39.246Z,10.98
2023-03-26T18:58:28.109Z,7.22
2023-03-26T19:01:03.983Z,11.65
2023-03-26T19:03:40.574Z,11.00
2023-03-26T19:06:10.499Z,10.48
2023-03-26T19:08:44.683Z,15.23
2023-03-26T19:11:15.413Z,17.13
2023-03-26T19:13:42.433Z,19.20
2023-03-26T19:16:24.065Z,10.88
2023-03-26T19:18:52.126Z,11.18
2023-03-26T19:21:23.178Z,8.00
2023-03-26T19:23:51.708Z,12.88
2023-03-26T19:26:19.074Z,14.27
2023-03-26T19:28:53.304Z,17.60
2023-03-26T19:31:23.487Z,10.70
2023-03-26T19:34:02.732Z,11.43
2023-03-26T19:36:32.031Z,19.58
2023-03-26T19:39:05.141Z,6.63
2023-03-26T19:41:35.725Z,19.02
2023-03-26T19:44:17.389Z,8.25
2023-03-26T19:46:54.014Z,13.45
2023-03-26T19:49:30.024Z,15.32
2023-03-26T19:52:46.799Z,9.93
2023-03-26T19:55:24.032Z,9.95
2023-03-26T19:57:51.652Z,12.18
2023-03-26T20:00:19.035Z,10.73
2023-03-26T20:02:46.588Z,12.80
2023-03-26T20:05:22.995Z,12.25
2023-03-26T20:07:59.763Z,11.73
2023-03-26T20:10:27.784Z,9.45
2023-03-26T20:12:54.778Z,16.10
2023-03-26T20:15:28.508Z,10.57
2023-03-26T20:17:55.834Z,22.25
2023-03-26T20:20:31.017Z,8.82
2023-03-26T20:22:57.901Z,10.35
2023-03-26T20:25:32.905Z,7.47
2023-03-26T20:27:59.847Z,9.85
2023-03-26T20:30:37.310Z,14.00
2023-03-26T20:33:12.225Z,10.00
2023-03-26T20:35:41.181Z,11.18
2023-03-26T20:38:09.724Z,8.05
2023-03-26T20:40:38.332Z,11.70
2023-03-26T20:43:11.221Z,15.98
2023-03-26T20:45:38.127Z,11.90
2023-03-26T20:48:05.426Z,11.30
2023-03-26T20:50:35.663Z,16.92
2023-03-26T20:53:03.054Z,10.70
2023-03-26T20:55:29.917Z,12.57
2023-03-26T20:57:56.847Z,6.68
2023-03-26T21:00:26.594Z,6.05
2023-03-26T21:02:57.466Z,12.27
2023-03-26T21:05:27.013Z,8.63
2023-03-26T21:07:58.892Z,6.40
2023-03-26T21:10:29.647Z,9.65
2023-03-26T21:13:13.552Z,12.00
2023-03-26T21:15:40.714Z,7.25
2023-03-26T21:18:08.274Z,10.48
2023-03-26T21:20:37.188Z,8.98
2023-03-26T21:23:36.833Z,8.60
2023-03-26T21:26:55.295Z,11.43
2023-03-26T21:29:22.791Z,11.77
2023-03-26T21:31:51.563Z,16.55
2023-03-26T21:34:20.076Z,9.73
2023-03-26T21:36:47.309Z,13.25
2023-03-26T21:39:15.389Z,10.38
2023-03-26T21:41:48.470Z,6.97
2023-03-26T21:44:33.126Z,11.45
2023-03-26T21:47:00.648Z,11.25
2023-03-26T21:49:27.927Z,12.93
2023-03-26T21:51:55.261Z,15.05
2023-03-26T21:54:29.526Z,9.07
2023-03-26T21:57:17.812Z,4.35
2023-03-26T22:00:18.504Z,12.38
2023-03-26T22:03:00.289Z,8.57
2023-03-26T22:05:32.870Z,19.65
2023-03-26T22:08:04.635Z,9.57
2023-03-26T22:10:32.076Z,9.82
2023-03-26T22:12:59.575Z,8.35
2023-03-26T22:15:30.394Z,12.90
2023-03-26T22:18:02.234Z,10.95
2023-03-26T22:20:29.403Z,8.55
2023-03-26T22:22:56.301Z,12.07
2023-03-26T22:25:24.120Z,19.80
2023-03-26T22:27:51.883Z,11.98
2023-03-26T22:30:20.797Z,11.55
2023-03-26T22:32:48.520Z,7.32
2023-03-26T22:35:15.884Z,8.27
2023-03-26T22:37:42.833Z,9.23
2023-03-26T22:40:16.157Z,12.73
2023-03-26T22:42:43.040Z,12.10
2023-03-26T22:45:11.090Z,9.07
2023-03-26T22:47:38.476Z,11.63
2023-03-26T22:50:07.518Z,10.23
2023-03-26T22:52:36.489Z,4.72
2023-03-26T22:55:05.327Z,14.52
2023-03-26T22:57:32.346Z,19.17
2023-03-26T23:00:08.997Z,10.25
2023-03-26T23:02:36.085Z,16.83
2023-03-26T23:05:02.983Z,9.38
2023-03-26T23:07:31.425Z,6.68
2023-03-26T23:09:58.380Z,15.18
2023-03-26T23:12:25.233Z,42.35
2023-03-26T23:14:53.000Z,10.48
2023-03-26T23:17:20.125Z,10.68
2023-03-26T23:19:47.055Z,4.13
2023-03-26T23:22:13.928Z,19.70
2023-03-26T23:24:40.824Z,7.63
2023-03-26T23:27:07.830Z,3.42
2023-03-26T23:29:35.536Z,7.43
2023-03-26T23:32:02.863Z,6.97
2023-03-26T23:34:29.790Z,10.27
2023-03-26T23:36:58.035Z,8.38
2023-03-26T23:39:26.640Z,9.88
2023-03-26T23:41:53.552Z,8.20
2023-03-26T23:44:20.406Z,11.52
2023-03-26T23:46:48.526Z,13.40
2023-03-26T23:49:15.364Z,7.03
2023-03-26T23:51:42.204Z,10.85
2023-03-26T23:54:09.190Z,16.83
2023-03-26T23:56:36.094Z,6.57
2023-03-26T23:59:03.589Z,15.75
